sensor_id;sensor_type;location;lat;lon;timestamp;P1;durP1;ratioP1;P2;durP2;ratioP2
53598;SDS011;39485;45.702;11.364;2022-08-18T03:21:36;7.03;;;3.05;;
53598;SDS011;39485;45.702;11.364;2022-08-18T03:24:02;13.02;;;3.75;;
53598;SDS011;39485;45.702;11.364;2022-08-18T03:26:29;12.55;;;4.20;;
53598;SDS011;39485;45.702;11.364;2022-08-18T03:28:56;7.93;;;4.30;;
53598;SDS011;39485;45.702;11.364;2022-08-18T03:31:24;7.40;;;3.28;;
53598;SDS011;39485;45.702;11.364;2022-08-18T03:33:51;13.48;;;3.10;;
53598;SDS011;39485;45.702;11.364;2022-08-18T03:36:18;5.57;;;1.45;;
53598;SDS011;39485;45.702;11.364;2022-08-18T03:38:47;7.30;;;1.85;;
53598;SDS011;39485;45.702;11.364;2022-08-18T03:41:14;8.57;;;2.08;;
53598;SDS011;39485;45.702;11.364;2022-08-18T03:43:41;6.70;;;1.95;;
53598;SDS011;39485;45.702;11.364;2022-08-18T03:46:08;10.52;;;2.08;;
53598;SDS011;39485;45.702;11.364;2022-08-18T03:48:39;10.77;;;2.15;;
53598;SDS011;39485;45.702;11.364;2022-08-18T03:51:07;5.07;;;2.03;;
53598;SDS011;39485;45.702;11.364;2022-08-18T03:53:37;6.85;;;1.98;;
53598;SDS011;39485;45.702;11.364;2022-08-18T03:56:07;6.65;;;1.80;;
53598;SDS011;39485;45.702;11.364;2022-08-18T03:58:39;12.90;;;2.08;;
53598;SDS011;39485;45.702;11.364;2022-08-18T04:01:14;8.65;;;1.75;;
53598;SDS011;39485;45.702;11.364;2022-08-18T04:03:45;11.88;;;2.55;;
53598;SDS011;39485;45.702;11.364;2022-08-18T04:06:18;11.18;;;2.33;;
53598;SDS011;39485;45.702;11.364;2022-08-18T04:08:50;11.43;;;2.67;;
53598;SDS011;39485;45.702;11.364;2022-08-18T04:11:17;11.77;;;2.20;;
53598;SDS011;39485;45.702;11.364;2022-08-18T04:13:43;10.13;;;2.40;;
53598;SDS011;39485;45.702;11.364;2022-08-18T04:16:09;7.13;;;2.08;;
53598;SDS011;39485;45.702;11.364;2022-08-18T04:18:35;6.63;;;2.33;;
53598;SDS011;39485;45.702;11.364;2022-08-18T04:21:02;9.45;;;2.75;;
53598;SDS011;39485;45.702;11.364;2022-08-18T04:23:31;12.35;;;3.13;;
53598;SDS011;39485;45.702;11.364;2022-08-18T04:25:58;8.88;;;2.30;;
53598;SDS011;39485;45.702;11.364;2022-08-18T04:28:26;9.60;;;2.42;;
53598;SDS011;39485;45.702;11.364;2022-08-18T04:30:52;13.70;;;2.55;;
53598;SDS011;39485;45.702;11.364;2022-08-18T04:33:18;15.23;;;2.35;;
53598;SDS011;39485;45.702;11.364;2022-08-18T04:35:44;14.77;;;2.55;;
53598;SDS011;39485;45.702;11.364;2022-08-18T04:38:11;5.95;;;1.58;;
53598;SDS011;39485;45.702;11.364;2022-08-18T04:40:37;7.07;;;1.45;;
53598;SDS011;39485;45.702;11.364;2022-08-18T04:43:05;5.47;;;1.60;;
53598;SDS011;39485;45.702;11.364;2022-08-18T04:45:35;3.97;;;1.52;;
53598;SDS011;39485;45.702;11.364;2022-08-18T04:48:04;5.80;;;1.85;;
53598;SDS011;39485;45.702;11.364;2022-08-18T04:50:34;3.85;;;1.48;;
53598;SDS011;39485;45.702;11.364;2022-08-18T04:53:01;4.78;;;1.75;;
53598;SDS011;39485;45.702;11.364;2022-08-18T04:55:46;9.55;;;1.83;;
53598;SDS011;39485;45.702;11.364;2022-08-18T04:58:13;7.13;;;1.42;;
53598;SDS011;39485;45.702;11.364;2022-08-18T05:00:41;3.72;;;1.38;;
53598;SDS011;39485;45.702;11.364;2022-08-18T05:03:08;7.18;;;1.85;;
53598;SDS011;39485;45.702;11.364;2022-08-18T05:05:34;2.90;;;1.50;;
53598;SDS011;39485;45.702;11.364;2022-08-18T05:08:00;6.22;;;1.65;;
53598;SDS011;39485;45.702;11.364;2022-08-18T05:10:26;8.45;;;1.58;;
53598;SDS011;39485;45.702;11.364;2022-08-18T05:12:52;7.30;;;1.48;;
53598;SDS011;39485;45.702;11.364;2022-08-18T05:15:18;8.90;;;1.80;;
53598;SDS011;39485;45.702;11.364;2022-08-18T05:17:44;3.85;;;1.67;;
53598;SDS011;39485;45.702;11.364;2022-08-18T05:20:10;4.75;;;1.67;;
53598;SDS011;39485;45.702;11.364;2022-08-18T05:22:37;3.63;;;1.73;;
53598;SDS011;39485;45.702;11.364;2022-08-18T05:25:05;3.85;;;1.67;;
53598;SDS011;39485;45.702;11.364;2022-08-18T05:27:36;4.22;;;1.73;;
53598;SDS011;39485;45.702;11.364;2022-08-18T05:30:03;6.53;;;1.77;;
53598;SDS011;39485;45.702;11.364;2022-08-18T05:32:49;4.55;;;1.40;;
53598;SDS011;39485;45.702;11.364;2022-08-18T05:35:20;4.40;;;1.60;;
53598;SDS011;39485;45.702;11.364;2022-08-18T05:40:23;5.65;;;1.80;;
53598;SDS011;39485;45.702;11.364;2022-08-18T05:42:50;5.18;;;1.83;;
53598;SDS011;39485;45.702;11.364;2022-08-18T05:45:17;4.35;;;1.60;;
53598;SDS011;39485;45.702;11.364;2022-08-18T05:47:44;5.20;;;1.83;;
53598;SDS011;39485;45.702;11.364;2022-08-18T05:50:10;9.70;;;2.15;;
53598;SDS011;39485;45.702;11.364;2022-08-18T05:55:26;9.25;;;1.88;;
53598;SDS011;39485;45.702;11.364;2022-08-18T05:58:22;3.30;;;1.30;;
53598;SDS011;39485;45.702;11.364;2022-08-18T06:01:03;4.43;;;2.05;;
53598;SDS011;39485;45.702;11.364;2022-08-18T06:03:35;3.95;;;1.48;;
53598;SDS011;39485;45.702;11.364;2022-08-18T06:06:18;5.63;;;1.73;;
53598;SDS011;39485;45.702;11.364;2022-08-18T06:08:57;6.53;;;1.75;;
53598;SDS011;39485;45.702;11.364;2022-08-18T06:11:29;4.53;;;1.67;;
53598;SDS011;39485;45.702;11.364;2022-08-18T06:13:55;2.58;;;1.75;;
53598;SDS011;39485;45.702;11.364;2022-08-18T06:16:32;4.97;;;2.05;;
53598;SDS011;39485;45.702;11.364;2022-08-18T06:22:00;3.15;;;1.75;;
53598;SDS011;39485;45.702;11.364;2022-08-18T06:32:21;4.00;;;1.35;;
53598;SDS011;39485;45.702;11.364;2022-08-18T06:37:35;4.05;;;1.67;;
53598;SDS011;39485;45.702;11.364;2022-08-18T06:40:39;7.32;;;1.50;;
53598;SDS011;39485;45.702;11.364;2022-08-18T06:43:06;6.80;;;1.52;;
53598;SDS011;39485;45.702;11.364;2022-08-18T06:45:37;12.40;;;2.25;;
53598;SDS011;39485;45.702;11.364;2022-08-18T06:48:13;3.75;;;1.48;;
53598;SDS011;39485;45.702;11.364;2022-08-18T06:53:18;3.55;;;1.52;;
53598;SDS011;39485;45.702;11.364;2022-08-18T06:55:45;5.65;;;1.70;;
53598;SDS011;39485;45.702;11.364;2022-08-18T07:00:53;4.25;;;1.10;;
53598;SDS011;39485;45.702;11.364;2022-08-18T07:03:23;2.63;;;1.08;;
53598;SDS011;39485;45.702;11.364;2022-08-18T07:06:10;7.78;;;1.23;;
53598;SDS011;39485;45.702;11.364;2022-08-18T07:08:53;6.15;;;1.10;;
53598;SDS011;39485;45.702;11.364;2022-08-18T07:11:39;4.50;;;1.10;;
53598;SDS011;39485;45.702;11.364;2022-08-18T07:14:20;5.85;;;1.42;;
53598;SDS011;39485;45.702;11.364;2022-08-18T07:16:48;4.20;;;1.00;;
53598;SDS011;39485;45.702;11.364;2022-08-18T07:19:17;5.90;;;1.10;;
53598;SDS011;39485;45.702;11.364;2022-08-18T07:21:45;5.97;;;1.30;;
53598;SDS011;39485;45.702;11.364;2022-08-18T07:24:27;2.58;;;1.23;;
53598;SDS011;39485;45.702;11.364;2022-08-18T07:29:24;6.65;;;1.35;;
53598;SDS011;39485;45.702;11.364;2022-08-18T07:31:51;4.10;;;1.10;;
53598;SDS011;39485;45.702;11.364;2022-08-18T07:34:22;4.95;;;1.20;;
53598;SDS011;39485;45.702;11.364;2022-08-18T07:37:03;5.93;;;1.13;;
53598;SDS011;39485;45.702;11.364;2022-08-18T07:39:43;5.97;;;1.30;;
53598;SDS011;39485;45.702;11.364;2022-08-18T07:58:54;9.45;;;1.65;;
53598;SDS011;39485;45.702;11.364;2022-08-18T08:01:35;9.38;;;2.30;;
53598;SDS011;39485;45.702;11.364;2022-08-18T08:04:12;7.95;;;1.90;;
53598;SDS011;39485;45.702;11.364;2022-08-18T08:07:07;12.05;;;1.60;;
53598;SDS011;39485;45.702;11.364;2022-08-18T08:09:51;9.38;;;2.30;;
53598;SDS011;39485;45.702;11.364;2022-08-18T08:12:36;17.15;;;2.85;;
53598;SDS011;39485;45.702;11.364;2022-08-18T08:15:15;7.53;;;2.33;;
53598;SDS011;39485;45.702;11.364;2022-08-18T08:17:54;12.48;;;2.13;;
53598;SDS011;39485;45.702;11.364;2022-08-18T08:20:59;4.72;;;1.65;;
53598;SDS011;39485;45.702;11.364;2022-08-18T08:31:59;10.90;;;2.25;;
53598;SDS011;39485;45.702;11.364;2022-08-18T08:34:34;6.75;;;1.98;;
53598;SDS011;39485;45.702;11.364;2022-08-18T08:37:26;4.32;;;1.58;;
53598;SDS011;39485;45.702;11.364;2022-08-18T08:40:01;7.82;;;2.05;;
53598;SDS011;39485;45.702;11.364;2022-08-18T08:42:40;8.35;;;1.73;;
53598;SDS011;39485;45.702;11.364;2022-08-18T08:45:17;4.85;;;1.48;;
53598;SDS011;39485;45.702;11.364;2022-08-18T08:48:01;0.90;;;0.73;;
53598;SDS011;39485;45.702;11.364;2022-08-18T08:50:41;6.35;;;1.08;;
53598;SDS011;39485;45.702;11.364;2022-08-18T08:53:32;4.13;;;1.17;;
53598;SDS011;39485;45.702;11.364;2022-08-18T08:56:07;3.38;;;1.00;;
53598;SDS011;39485;45.702;11.364;2022-08-18T09:01:05;6.70;;;1.00;;
53598;SDS011;39485;45.702;11.364;2022-08-18T09:03:44;4.88;;;1.20;;
53598;SDS011;39485;45.702;11.364;2022-08-18T09:16:42;9.07;;;1.10;;
53598;SDS011;39485;45.702;11.364;2022-08-18T09:42:15;4.72;;;1.30;;
53598;SDS011;39485;45.702;11.364;2022-08-18T09:49:51;5.60;;;1.30;;
53598;SDS011;39485;45.702;11.364;2022-08-18T09:57:42;4.75;;;1.10;;
53598;SDS011;39485;45.702;11.364;2022-08-18T10:05:25;3.05;;;1.30;;
53598;SDS011;39485;45.702;11.364;2022-08-18T10:18:59;4.88;;;1.50;;
53598;SDS011;39485;45.702;11.364;2022-08-18T10:24:45;9.48;;;1.48;;
53598;SDS011;39485;45.702;11.364;2022-08-18T10:27:45;19.52;;;2.70;;
53598;SDS011;39485;45.702;11.364;2022-08-18T10:33:01;8.55;;;2.03;;
53598;SDS011;39485;45.702;11.364;2022-08-18T10:38:43;4.55;;;2.10;;
53598;SDS011;39485;45.702;11.364;2022-08-18T10:41:03;7.03;;;1.80;;
53598;SDS011;39485;45.702;11.364;2022-08-18T10:43:43;8.45;;;2.60;;
53598;SDS011;39485;45.702;11.364;2022-08-18T10:46:53;5.97;;;1.60;;
53598;SDS011;39485;45.702;11.364;2022-08-18T10:49:15;4.38;;;1.85;;
53598;SDS011;39485;45.702;11.364;2022-08-18T10:54:31;3.40;;;1.30;;
53598;SDS011;39485;45.702;11.364;2022-08-18T10:57:46;6.28;;;2.55;;
53598;SDS011;39485;45.702;11.364;2022-08-18T11:00:19;8.15;;;2.40;;
53598;SDS011;39485;45.702;11.364;2022-08-18T11:05:32;10.95;;;2.90;;
53598;SDS011;39485;45.702;11.364;2022-08-18T11:07:59;6.85;;;3.00;;
53598;SDS011;39485;45.702;11.364;2022-08-18T11:16:48;8.27;;;2.35;;
53598;SDS011;39485;45.702;11.364;2022-08-18T11:19:16;11.02;;;2.58;;
53598;SDS011;39485;45.702;11.364;2022-08-18T11:21:47;6.80;;;2.30;;
53598;SDS011;39485;45.702;11.364;2022-08-18T11:24:19;6.07;;;2.88;;
53598;SDS011;39485;45.702;11.364;2022-08-18T11:26:51;8.98;;;2.60;;
53598;SDS011;39485;45.702;11.364;2022-08-18T11:37:32;2.70;;;1.60;;
53598;SDS011;39485;45.702;11.364;2022-08-18T11:42:41;4.75;;;1.52;;
53598;SDS011;39485;45.702;11.364;2022-08-18T11:45:50;2.58;;;1.30;;
53598;SDS011;39485;45.702;11.364;2022-08-18T11:56:35;3.00;;;1.35;;
53598;SDS011;39485;45.702;11.364;2022-08-18T11:59:05;4.38;;;1.45;;
53598;SDS011;39485;45.702;11.364;2022-08-18T12:01:56;2.47;;;1.08;;
53598;SDS011;39485;45.702;11.364;2022-08-18T12:04:30;3.40;;;1.42;;
53598;SDS011;39485;45.702;11.364;2022-08-18T12:07:08;2.50;;;1.27;;
53598;SDS011;39485;45.702;11.364;2022-08-18T12:10:07;3.25;;;1.10;;
53598;SDS011;39485;45.702;11.364;2022-08-18T12:17:37;1.10;;;1.10;;
53598;SDS011;39485;45.702;11.364;2022-08-18T12:20:05;2.33;;;1.13;;
53598;SDS011;39485;45.702;11.364;2022-08-18T12:22:36;2.72;;;1.00;;
53598;SDS011;39485;45.702;11.364;2022-08-18T12:25:03;2.70;;;1.13;;
53598;SDS011;39485;45.702;11.364;2022-08-18T12:27:31;4.70;;;1.35;;
53598;SDS011;39485;45.702;11.364;2022-08-18T12:29:57;4.38;;;1.50;;
53598;SDS011;39485;45.702;11.364;2022-08-18T12:32:26;8.50;;;1.80;;
53598;SDS011;39485;45.702;11.364;2022-08-18T12:35:30;6.95;;;1.40;;
53598;SDS011;39485;45.702;11.364;2022-08-18T12:37:56;2.30;;;1.08;;
53598;SDS011;39485;45.702;11.364;2022-08-18T12:40:22;3.20;;;1.33;;
53598;SDS011;39485;45.702;11.364;2022-08-18T12:42:48;4.85;;;1.52;;
53598;SDS011;39485;45.702;11.364;2022-08-18T12:45:14;2.85;;;2.25;;
53598;SDS011;39485;45.702;11.364;2022-08-18T12:47:40;4.10;;;2.70;;
53598;SDS011;39485;45.702;11.364;2022-08-18T12:50:08;8.88;;;2.88;;
53598;SDS011;39485;45.702;11.364;2022-08-18T12:52:34;4.57;;;2.90;;
53598;SDS011;39485;45.702;11.364;2022-08-18T12:55:00;4.63;;;2.83;;
53598;SDS011;39485;45.702;11.364;2022-08-18T12:57:26;4.63;;;3.28;;
53598;SDS011;39485;45.702;11.364;2022-08-18T12:59:52;6.43;;;3.85;;
53598;SDS011;39485;45.702;11.364;2022-08-18T13:02:21;9.60;;;3.58;;
53598;SDS011;39485;45.702;11.364;2022-08-18T13:04:47;6.03;;;3.70;;
53598;SDS011;39485;45.702;11.364;2022-08-18T13:07:12;5.93;;;3.63;;
53598;SDS011;39485;45.702;11.364;2022-08-18T13:09:40;9.32;;;4.03;;
53598;SDS011;39485;45.702;11.364;2022-08-18T13:12:06;4.13;;;3.20;;
53598;SDS011;39485;45.702;11.364;2022-08-18T13:14:32;7.90;;;3.72;;
53598;SDS011;39485;45.702;11.364;2022-08-18T13:16:58;7.80;;;3.92;;
53598;SDS011;39485;45.702;11.364;2022-08-18T13:19:24;9.48;;;4.35;;
53598;SDS011;39485;45.702;11.364;2022-08-18T13:21:50;6.18;;;4.53;;
53598;SDS011;39485;45.702;11.364;2022-08-18T13:24:15;8.77;;;3.95;;
53598;SDS011;39485;45.702;11.364;2022-08-18T13:26:42;15.07;;;4.22;;
53598;SDS011;39485;45.702;11.364;2022-08-18T13:29:09;8.98;;;4.20;;
53598;SDS011;39485;45.702;11.364;2022-08-18T13:31:35;8.98;;;4.10;;
53598;SDS011;39485;45.702;11.364;2022-08-18T13:34:02;6.55;;;3.42;;
53598;SDS011;39485;45.702;11.364;2022-08-18T13:36:28;7.82;;;3.33;;
53598;SDS011;39485;45.702;11.364;2022-08-18T13:39:17;7.43;;;3.38;;
53598;SDS011;39485;45.702;11.364;2022-08-18T13:41:46;8.55;;;3.17;;
53598;SDS011;39485;45.702;11.364;2022-08-18T13:44:14;6.05;;;2.72;;
53598;SDS011;39485;45.702;11.364;2022-08-18T13:46:42;5.50;;;2.40;;
53598;SDS011;39485;45.702;11.364;2022-08-18T13:49:12;8.60;;;2.47;;
53598;SDS011;39485;45.702;11.364;2022-08-18T13:51:39;6.45;;;1.73;;
53598;SDS011;39485;45.702;11.364;2022-08-18T13:54:07;4.30;;;1.63;;
53598;SDS011;39485;45.702;11.364;2022-08-18T13:56:34;4.82;;;1.48;;
53598;SDS011;39485;45.702;11.364;2022-08-18T13:59:00;8.00;;;1.38;;
53598;SDS011;39485;45.702;11.364;2022-08-18T14:01:26;3.55;;;1.30;;
53598;SDS011;39485;45.702;11.364;2022-08-18T14:03:51;9.15;;;1.50;;
53598;SDS011;39485;45.702;11.364;2022-08-18T14:06:17;5.50;;;1.65;;
53598;SDS011;39485;45.702;11.364;2022-08-18T14:08:46;5.63;;;1.75;;
53598;SDS011;39485;45.702;11.364;2022-08-18T14:11:12;4.88;;;1.42;;
53598;SDS011;39485;45.702;11.364;2022-08-18T14:13:38;4.07;;;1.08;;
53598;SDS011;39485;45.702;11.364;2022-08-18T14:16:07;4.10;;;1.42;;
53598;SDS011;39485;45.702;11.364;2022-08-18T14:18:33;9.57;;;1.85;;
53598;SDS011;39485;45.702;11.364;2022-08-18T14:20:58;5.68;;;1.55;;
53598;SDS011;39485;45.702;11.364;2022-08-18T14:23:43;3.58;;;1.20;;
53598;SDS011;39485;45.702;11.364;2022-08-18T14:26:27;3.45;;;1.25;;
53598;SDS011;39485;45.702;11.364;2022-08-18T14:29:11;6.28;;;2.30;;
53598;SDS011;39485;45.702;11.364;2022-08-18T14:31:37;5.97;;;1.60;;
53598;SDS011;39485;45.702;11.364;2022-08-18T14:34:03;7.28;;;1.70;;
53598;SDS011;39485;45.702;11.364;2022-08-18T14:36:28;8.35;;;1.27;;
53598;SDS011;39485;45.702;11.364;2022-08-18T14:38:54;2.58;;;1.42;;
53598;SDS011;39485;45.702;11.364;2022-08-18T14:41:21;6.47;;;1.88;;
53598;SDS011;39485;45.702;11.364;2022-08-18T14:43:46;5.05;;;1.35;;
53598;SDS011;39485;45.702;11.364;2022-08-18T14:46:12;3.55;;;1.58;;
53598;SDS011;39485;45.702;11.364;2022-08-18T14:48:38;5.68;;;1.55;;
53598;SDS011;39485;45.702;11.364;2022-08-18T14:51:04;5.95;;;1.50;;
53598;SDS011;39485;45.702;11.364;2022-08-18T14:53:32;4.55;;;1.52;;
53598;SDS011;39485;45.702;11.364;2022-08-18T14:55:59;8.77;;;1.60;;
53598;SDS011;39485;45.702;11.364;2022-08-18T14:58:28;6.93;;;1.80;;
53598;SDS011;39485;45.702;11.364;2022-08-18T15:00:56;8.38;;;2.10;;
53598;SDS011;39485;45.702;11.364;2022-08-18T15:03:24;5.47;;;1.35;;
53598;SDS011;39485;45.702;11.364;2022-08-18T15:05:51;4.30;;;1.55;;
53598;SDS011;39485;45.702;11.364;2022-08-18T15:08:18;8.65;;;2.03;;
53598;SDS011;39485;45.702;11.364;2022-08-18T15:10:44;7.22;;;1.75;;
53598;SDS011;39485;45.702;11.364;2022-08-18T15:13:11;4.30;;;1.27;;
53598;SDS011;39485;45.702;11.364;2022-08-18T15:15:37;4.53;;;1.52;;
53598;SDS011;39485;45.702;11.364;2022-08-18T15:18:02;4.32;;;1.40;;
53598;SDS011;39485;45.702;11.364;2022-08-18T15:20:29;3.40;;;1.45;;
53598;SDS011;39485;45.702;11.364;2022-08-18T15:22:57;7.97;;;1.42;;
53598;SDS011;39485;45.702;11.364;2022-08-18T15:25:44;5.45;;;1.33;;
53598;SDS011;39485;45.702;11.364;2022-08-18T15:28:12;3.72;;;1.60;;
53598;SDS011;39485;45.702;11.364;2022-08-18T15:30:38;5.97;;;1.70;;
53598;SDS011;39485;45.702;11.364;2022-08-18T15:33:04;5.15;;;1.40;;
53598;SDS011;39485;45.702;11.364;2022-08-18T15:35:31;5.47;;;1.27;;
53598;SDS011;39485;45.702;11.364;2022-08-18T15:37:58;7.25;;;1.58;;
53598;SDS011;39485;45.702;11.364;2022-08-18T15:40:25;3.95;;;1.40;;
53598;SDS011;39485;45.702;11.364;2022-08-18T15:42:53;5.80;;;1.50;;
53598;SDS011;39485;45.702;11.364;2022-08-18T15:45:40;3.08;;;1.50;;
53598;SDS011;39485;45.702;11.364;2022-08-18T15:48:09;6.32;;;1.63;;
53598;SDS011;39485;45.702;11.364;2022-08-18T15:50:35;6.85;;;1.45;;
53598;SDS011;39485;45.702;11.364;2022-08-18T15:53:02;3.58;;;1.30;;
53598;SDS011;39485;45.702;11.364;2022-08-18T15:55:30;2.92;;;1.60;;
53598;SDS011;39485;45.702;11.364;2022-08-18T15:57:58;4.90;;;1.83;;
53598;SDS011;39485;45.702;11.364;2022-08-18T16:00:26;3.83;;;1.58;;
53598;SDS011;39485;45.702;11.364;2022-08-18T16:02:55;5.47;;;1.83;;
53598;SDS011;39485;45.702;11.364;2022-08-18T16:05:24;5.32;;;1.83;;
53598;SDS011;39485;45.702;11.364;2022-08-18T16:07:53;5.55;;;1.65;;
53598;SDS011;39485;45.702;11.364;2022-08-18T16:10:21;5.55;;;2.03;;
53598;SDS011;39485;45.702;11.364;2022-08-18T16:12:48;12.25;;;1.92;;
53598;SDS011;39485;45.702;11.364;2022-08-18T16:15:16;9.73;;;2.05;;
53598;SDS011;39485;45.702;11.364;2022-08-18T16:17:43;1.85;;;1.23;;
53598;SDS011;39485;45.702;11.364;2022-08-18T16:20:09;7.28;;;1.60;;
53598;SDS011;39485;45.702;11.364;2022-08-18T16:22:36;4.22;;;1.50;;
53598;SDS011;39485;45.702;11.364;2022-08-18T16:25:06;9.63;;;1.90;;
53598;SDS011;39485;45.702;11.364;2022-08-18T16:27:33;4.93;;;1.30;;
53598;SDS011;39485;45.702;11.364;2022-08-18T16:30:00;3.55;;;1.23;;
53598;SDS011;39485;45.702;11.364;2022-08-18T16:32:28;2.83;;;1.00;;
53598;SDS011;39485;45.702;11.364;2022-08-18T16:34:55;4.82;;;1.38;;
53598;SDS011;39485;45.702;11.364;2022-08-18T16:37:21;3.40;;;1.20;;
53598;SDS011;39485;45.702;11.364;2022-08-18T16:39:47;4.25;;;1.30;;
53598;SDS011;39485;45.702;11.364;2022-08-18T16:42:13;7.45;;;1.40;;
53598;SDS011;39485;45.702;11.364;2022-08-18T16:44:41;1.80;;;1.00;;
53598;SDS011;39485;45.702;11.364;2022-08-18T16:47:07;1.80;;;1.20;;
53598;SDS011;39485;45.702;11.364;2022-08-18T16:49:32;2.95;;;1.60;;
53598;SDS011;39485;45.702;11.364;2022-08-18T16:51:59;6.18;;;1.75;;
53598;SDS011;39485;45.702;11.364;2022-08-18T16:54:26;10.38;;;1.15;;
53598;SDS011;39485;45.702;11.364;2022-08-18T16:56:52;5.75;;;1.40;;
53598;SDS011;39485;45.702;11.364;2022-08-18T16:59:18;2.55;;;0.98;;
53598;SDS011;39485;45.702;11.364;2022-08-18T17:04:47;3.20;;;1.00;;
53598;SDS011;39485;45.702;11.364;2022-08-18T17:07:15;3.50;;;1.40;;
53598;SDS011;39485;45.702;11.364;2022-08-18T17:09:41;5.30;;;1.60;;
53598;SDS011;39485;45.702;11.364;2022-08-18T17:12:07;2.72;;;1.50;;
53598;SDS011;39485;45.702;11.364;2022-08-18T17:14:33;11.98;;;2.17;;
53598;SDS011;39485;45.702;11.364;2022-08-18T17:17:01;7.72;;;1.83;;
53598;SDS011;39485;45.702;11.364;2022-08-18T17:19:29;4.20;;;1.33;;
53598;SDS011;39485;45.702;11.364;2022-08-18T17:21:58;4.50;;;1.70;;
53598;SDS011;39485;45.702;11.364;2022-08-18T17:24:25;5.45;;;1.60;;
53598;SDS011;39485;45.702;11.364;2022-08-18T17:32:28;3.35;;;1.15;;
53598;SDS011;39485;45.702;11.364;2022-08-18T17:35:21;5.20;;;1.08;;
53598;SDS011;39485;45.702;11.364;2022-08-18T17:38:09;2.95;;;1.10;;
53598;SDS011;39485;45.702;11.364;2022-08-18T17:40:42;10.77;;;1.30;;
53598;SDS011;39485;45.702;11.364;2022-08-18T17:43:14;3.20;;;1.10;;
53598;SDS011;39485;45.702;11.364;2022-08-18T17:45:51;6.90;;;1.23;;
53598;SDS011;39485;45.702;11.364;2022-08-18T17:48:46;6.70;;;1.35;;
53598;SDS011;39485;45.702;11.364;2022-08-18T17:51:27;4.90;;;1.10;;
53598;SDS011;39485;45.702;11.364;2022-08-18T17:54:36;6.30;;;1.42;;
53598;SDS011;39485;45.702;11.364;2022-08-18T17:57:46;2.42;;;1.13;;
53598;SDS011;39485;45.702;11.364;2022-08-18T18:00:11;5.38;;;1.35;;
53598;SDS011;39485;45.702;11.364;2022-08-18T18:02:42;5.55;;;1.77;;
53598;SDS011;39485;45.702;11.364;2022-08-18T18:05:10;6.38;;;1.80;;
53598;SDS011;39485;45.702;11.364;2022-08-18T18:15:51;6.70;;;2.20;;
53598;SDS011;39485;45.702;11.364;2022-08-18T18:18:38;4.72;;;2.42;;
53598;SDS011;39485;45.702;11.364;2022-08-18T18:23:39;5.07;;;1.70;;
53598;SDS011;39485;45.702;11.364;2022-08-18T18:26:32;6.60;;;1.88;;
53598;SDS011;39485;45.702;11.364;2022-08-18T18:29:26;8.32;;;1.80;;
53598;SDS011;39485;45.702;11.364;2022-08-18T18:34:44;6.03;;;1.73;;
53598;SDS011;39485;45.702;11.364;2022-08-18T18:37:37;8.80;;;1.90;;
53598;SDS011;39485;45.702;11.364;2022-08-18T18:40:17;4.57;;;2.00;;
53598;SDS011;39485;45.702;11.364;2022-08-18T18:42:48;5.90;;;1.90;;
53598;SDS011;39485;45.702;11.364;2022-08-18T18:45:35;6.18;;;2.30;;
53598;SDS011;39485;45.702;11.364;2022-08-18T18:50:42;5.63;;;1.33;;
53598;SDS011;39485;45.702;11.364;2022-08-18T19:04:32;5.95;;;1.65;;
53598;SDS011;39485;45.702;11.364;2022-08-18T19:09:40;10.00;;;1.88;;
53598;SDS011;39485;45.702;11.364;2022-08-18T19:12:29;6.10;;;1.42;;
53598;SDS011;39485;45.702;11.364;2022-08-18T19:15:02;8.82;;;1.13;;
53598;SDS011;39485;45.702;11.364;2022-08-18T19:17:42;2.95;;;1.35;;
53598;SDS011;39485;45.702;11.364;2022-08-18T19:30:16;6.97;;;1.60;;
53598;SDS011;39485;45.702;11.364;2022-08-18T19:32:46;11.90;;;2.28;;
53598;SDS011;39485;45.702;11.364;2022-08-18T19:35:15;6.65;;;1.55;;
53598;SDS011;39485;45.702;11.364;2022-08-18T19:45:58;6.30;;;1.70;;
53598;SDS011;39485;45.702;11.364;2022-08-18T19:51:37;5.35;;;1.67;;
53598;SDS011;39485;45.702;11.364;2022-08-18T20:04:54;4.10;;;1.77;;
53598;SDS011;39485;45.702;11.364;2022-08-18T20:15:26;6.63;;;1.70;;
53598;SDS011;39485;45.702;11.364;2022-08-18T20:20:21;3.15;;;1.15;;
53598;SDS011;39485;45.702;11.364;2022-08-18T20:22:52;6.63;;;1.90;;
53598;SDS011;39485;45.702;11.364;2022-08-18T20:30:32;5.28;;;1.75;;
53598;SDS011;39485;45.702;11.364;2022-08-18T20:33:38;9.32;;;1.70;;
53598;SDS011;39485;45.702;11.364;2022-08-18T20:36:28;4.50;;;1.70;;
53598;SDS011;39485;45.702;11.364;2022-08-18T20:39:00;7.22;;;1.63;;
53598;SDS011;39485;45.702;11.364;2022-08-18T20:42:05;4.25;;;1.65;;
53598;SDS011;39485;45.702;11.364;2022-08-18T20:44:55;9.38;;;1.70;;
53598;SDS011;39485;45.702;11.364;2022-08-18T20:47:28;6.35;;;1.60;;
53598;SDS011;39485;45.702;11.364;2022-08-18T20:53:37;5.68;;;1.40;;
53598;SDS011;39485;45.702;11.364;2022-08-18T20:59:08;5.47;;;1.38;;
53598;SDS011;39485;45.702;11.364;2022-08-18T21:01:40;5.45;;;1.15;;
53598;SDS011;39485;45.702;11.364;2022-08-18T21:04:06;5.70;;;0.98;;
53598;SDS011;39485;45.702;11.364;2022-08-18T21:06:37;3.05;;;1.05;;
53598;SDS011;39485;45.702;11.364;2022-08-18T21:09:08;9.27;;;1.33;;
53598;SDS011;39485;45.702;11.364;2022-08-18T21:11:41;6.13;;;1.42;;
53598;SDS011;39485;45.702;11.364;2022-08-18T21:14:10;8.90;;;1.45;;
53598;SDS011;39485;45.702;11.364;2022-08-18T21:16:43;6.38;;;1.45;;
53598;SDS011;39485;45.702;11.364;2022-08-18T21:19:20;3.15;;;1.15;;
53598;SDS011;39485;45.702;11.364;2022-08-18T21:21:58;9.80;;;1.45;;
53598;SDS011;39485;45.702;11.364;2022-08-18T21:24:36;6.50;;;1.50;;
53598;SDS011;39485;45.702;11.364;2022-08-18T21:27:06;9.45;;;1.77;;
53598;SDS011;39485;45.702;11.364;2022-08-18T21:29:36;10.02;;;2.05;;
53598;SDS011;39485;45.702;11.364;2022-08-18T21:32:10;8.18;;;1.08;;
53598;SDS011;39485;45.702;11.364;2022-08-18T21:34:41;5.82;;;1.42;;
53598;SDS011;39485;45.702;11.364;2022-08-18T21:37:09;3.80;;;1.63;;
53598;SDS011;39485;45.702;11.364;2022-08-18T21:39:47;6.95;;;1.13;;
53598;SDS011;39485;45.702;11.364;2022-08-18T21:45:12;5.80;;;1.33;;
53598;SDS011;39485;45.702;11.364;2022-08-18T21:50:37;6.68;;;1.33;;
53598;SDS011;39485;45.702;11.364;2022-08-18T21:55:40;6.30;;;1.50;;
53598;SDS011;39485;45.702;11.364;2022-08-18T22:00:40;5.05;;;1.25;;
53598;SDS011;39485;45.702;11.364;2022-08-18T22:05:47;5.78;;;1.27;;
53598;SDS011;39485;45.702;11.364;2022-08-18T22:08:23;4.82;;;1.38;;
53598;SDS011;39485;45.702;11.364;2022-08-18T22:11:03;5.32;;;1.20;;
53598;SDS011;39485;45.702;11.364;2022-08-18T22:14:43;7.68;;;1.00;;
53598;SDS011;39485;45.702;11.364;2022-08-18T22:16:50;4.78;;;1.00;;
53598;SDS011;39485;45.702;11.364;2022-08-18T22:21:45;7.28;;;1.13;;
53598;SDS011;39485;45.702;11.364;2022-08-18T22:29:43;4.97;;;1.15;;
53598;SDS011;39485;45.702;11.364;2022-08-18T22:32:15;10.73;;;1.30;;
53598;SDS011;39485;45.702;11.364;2022-08-18T22:34:41;10.38;;;1.73;;
53598;SDS011;39485;45.702;11.364;2022-08-18T22:39:56;8.25;;;0.90;;
53598;SDS011;39485;45.702;11.364;2022-08-18T22:42:23;3.13;;;1.20;;
53598;SDS011;39485;45.702;11.364;2022-08-18T22:44:51;3.42;;;0.93;;
53598;SDS011;39485;45.702;11.364;2022-08-18T22:47:18;3.92;;;1.38;;
53598;SDS011;39485;45.702;11.364;2022-08-18T22:49:44;5.93;;;1.20;;
53598;SDS011;39485;45.702;11.364;2022-08-18T22:52:32;3.42;;;1.20;;
53598;SDS011;39485;45.702;11.364;2022-08-18T22:54:58;4.55;;;1.70;;
53598;SDS011;39485;45.702;11.364;2022-08-18T22:57:26;3.85;;;2.05;;
53598;SDS011;39485;45.702;11.364;2022-08-18T22:59:52;7.85;;;2.13;;